Latest Coastal Weather Observations for Adelaide Airport

IDS60701

Issued at 3:11 pm CDT Monday 6 December 2021 (issued every 10 minutes, with the page automatically refreshed every 10 minutes)

About coastal observations | Map of coastal stations | Coastal observations for SA | Marine services | Other Formats
Station Details ID: 023034 Name: ADELAIDE AIRPORT Lat: -34.95 Lon: 138.52 Height: 2.0 m
Data from the previous 72 hours. | See also: Recent months at Adelaide Airport
Date/Time
CDT
Wind Sea
Height
m
Swell Vis
km
Cloud Weather Temp
°C
Press
MSL
hPa
Rain since
9am
mm
Dir  Spd
kts
Gust
kts
Height
m
Period
s
Dir
06/03:00pm SW 15 18 - - - - 30 Mostly clear Fine 20.9 1011.8 0.0
06/02:30pm SSW 16 20 - - - - 10 - - 20.9 1012.1 0.0
06/02:00pm SW 16 20 - - - - 10 - - 20.9 1012.2 0.0
06/01:30pm SW 12 16 - - - - 10 - - 21.0 1012.0 0.0
06/01:00pm SW 12 17 - - - - 10 - - 20.6 1012.1 0.0
06/12:30pm SW 11 14 - - - - 10 - - 20.7 1012.4 0.0
06/12:00pm SW 12 15 - - - - 30 Mostly clear Fine 20.2 1012.4 0.0
06/11:30am SW 14 16 - - - - 10 - - 19.9 1012.4 0.0
06/11:00am WSW 11 15 - - - - 10 - - 20.7 1012.5 0.0
06/10:30am W 9 12 - - - - 10 - - 20.6 1012.4 0.0
06/10:00am WSW 7 10 - - - - 10 - - 22.2 1012.5 0.0
06/09:30am N 4 6 - - - - 10 - - 21.6 1012.6 0.0
06/09:00am NW 4 5 - - - - 25 Mostly clear Fine 22.1 1012.8 0.0
06/08:30am NW 4 5 - - - - 10 - - 20.6 1012.7 0.0
06/08:00am NE 5 5 - - - - 10 - - 20.1 1012.7 0.0
06/07:30am ENE 1 5 - - - - 10 - - 18.4 1012.4 0.0
06/07:00am NE 2 4 - - - - 10 - - 16.4 1012.3 0.0
06/06:30am NE 5 6 - - - - 10 - - 13.7 1012.2 0.0
06/06:00am NE 4 5 - - - - 30 Mostly clear Fine 13.1 1012.2 0.0
06/05:30am ENE 5 6 - - - - 10 - - 13.7 1012.1 0.0
06/05:00am ESE 4 5 - - - - 10 - - 13.3 1012.0 0.0
06/04:30am ENE 4 5 - - - - 10 - - 13.6 1012.1 0.0
06/04:00am ENE 4 4 - - - - 10 - - 14.1 1012.1 0.0
06/03:30am CALM 0 0 - - - - 10 - - 13.9 1012.1 0.0
06/03:00am CALM 0 0 - - - - 10 Partly cloudy - 15.0 1012.3 0.0
06/02:30am CALM 0 0 - - - - 10 - - 15.7 1012.1 0.0
06/02:00am SW 4 4 - - - - 10 - - 16.6 1012.3 0.0
06/01:30am SSW 2 4 - - - - 10 - - 16.3 1012.5 0.0
06/01:00am S 2 3 - - - - 10 - - 16.6 1012.9 0.0
06/12:30am S 5 6 - - - - 10 - - 16.6 1013.4 0.0
06/12:00am SSE 6 7 - - - - 30 Partly cloudy Fine 17.1 1013.8 0.0
 
Date/Time
CDT
Wind Sea
Height
m
Swell Vis
km
Cloud Weather Temp
°C
Press
MSL
hPa
Rain since
9am
mm
Dir  Spd
kts
Gust
kts
Height
m
Period
s
Dir
05/11:30pm SSE 6 7 - - - - 10 - - 16.8 1014.1 0.0
05/11:00pm SE 7 8 - - - - 10 - - 17.0 1014.3 0.0
05/10:30pm SE 9 12 - - - - 10 - - 17.1 1014.4 0.0
05/10:00pm SE 9 13 - - - - 10 - - 17.4 1014.5 0.0
05/09:30pm ESE 10 13 - - - - 10 - - 18.2 1014.4 0.0
05/09:00pm SE 9 13 - - - - 30 Mostly cloudy Fine 18.7 1014.6 0.0
05/08:30pm SE 9 12 - - - - 10 - - 19.3 1014.6 0.0
05/08:00pm SE 8 12 - - - - 10 - - 19.8 1014.5 0.0
05/07:30pm SE 9 13 - - - - 10 - - 21.0 1014.3 0.0
05/07:00pm SSE 11 15 - - - - 10 - - 22.4 1014.1 0.0
05/06:30pm SE 9 14 - - - - 10 - - 22.4 1014.1 0.0
05/06:00pm SE 14 18 - - - - 40 Mostly cloudy Fine 22.8 1014.1 0.0
05/05:30pm SW 13 17 - - - - 10 - - 22.0 1014.3 0.0
05/05:00pm SW 14 18 - - - - 10 - - 21.6 1014.7 0.0
05/04:30pm SW 12 16 - - - - 10 - - 21.2 1015.1 0.0
05/04:00pm SSW 14 18 - - - - 10 - - 21.5 1015.6 0.0
05/03:30pm SW 15 19 - - - - 10 - - 20.5 1016.2 0.0
05/03:00pm SSW 13 17 - - - - 40 Mostly cloudy Fine 21.1 1016.8 0.0
05/02:30pm SW 14 17 - - - - 10 - - 20.0 1017.2 0.0
05/02:00pm WSW 14 16 - - - - 10 - - 20.5 1017.8 0.0
05/01:30pm WSW 16 18 - - - - 10 - - 19.4 1017.9 0.0
05/01:00pm SW 14 16 - - - - 10 - - 19.0 1018.0 0.0
05/12:30pm SW 13 16 - - - - 10 - - 19.0 1018.2 0.0
05/12:00pm WSW 10 14 - - - - 40 Mostly cloudy Fine 19.2 1018.4 0.0
05/11:30am WSW 9 12 - - - - 10 - - 19.3 1018.9 0.0
05/11:00am WSW 9 13 - - - - 10 - - 18.3 1019.4 0.0
05/10:30am WSW 8 11 - - - - 10 - - 17.9 1019.9 0.0
05/10:00am WSW 8 10 - - - - 10 - - 18.2 1020.3 0.0
05/09:30am SW 7 9 - - - - 10 - - 17.4 1020.8 0.0
05/09:00am N 3 6 - - - - 40 Partly cloudy Fine 17.8 1021.0 0.0
05/08:30am NE 4 6 - - - - 10 - - 17.8 1021.0 0.0
05/08:00am NW 3 7 - - - - 10 - - 16.9 1020.8 0.0
05/07:30am SE 3 6 - - - - 10 - - 16.1 1020.6 0.0
05/07:00am ESE 6 8 - - - - 10 - - 14.9 1020.4 0.0
05/06:30am ESE 8 10 - - - - 10 - - 13.9 1020.3 0.0
05/06:00am ESE 8 10 - - - - 40 Partly cloudy Fine 13.4 1020.1 0.0
05/05:30am ESE 9 14 - - - - 10 Mostly clear - 13.5 1019.9 0.0
05/05:00am SE 8 11 - - - - 10 Mostly clear - 13.4 1019.6 0.0
05/04:30am SE 7 10 - - - - 10 Mostly clear - 13.4 1019.4 0.0
05/04:00am SE 7 10 - - - - 10 Mostly clear - 13.9 1019.4 0.0
05/03:30am SE 8 11 - - - - 10 Mostly clear - 13.6 1019.6 0.0
05/03:00am SE 7 10 - - - - 40 Mostly clear Fine 13.8 1019.9 0.0
05/02:30am SE 8 12 - - - - 10 Mostly clear - 14.3 1020.1 0.0
05/02:00am SSE 9 12 - - - - 10 Mostly clear - 14.2 1020.0 0.0
05/01:30am SSE 10 13 - - - - 10 Mostly clear - 14.2 1020.6 0.0
05/01:00am SSE 9 15 - - - - 10 Mostly clear - 14.0 1021.1 0.0
05/12:30am SSE 9 11 - - - - 10 Mostly clear - 13.6 1021.4 0.0
05/12:00am SSE 7 10 - - - - 40 Mostly clear Fine 13.7 1022.0 0.0
 
Date/Time
CDT
Wind Sea
Height
m
Swell Vis
km
Cloud Weather Temp
°C
Press
MSL
hPa
Rain since
9am
mm
Dir  Spd
kts
Gust
kts
Height
m
Period
s
Dir
04/11:30pm SSE 7 9 - - - - 10 Mostly clear - 14.2 1022.3 0.0
04/11:00pm S 8 10 - - - - 10 Mostly clear - 14.3 1022.2 0.0
04/10:30pm S 8 10 - - - - 10 Mostly clear - 14.8 1022.4 0.0
04/10:00pm SSE 11 15 - - - - 10 Mostly clear - 15.0 1022.1 0.0
04/09:30pm SSE 9 15 - - - - 10 Mostly clear - 15.4 1022.0 0.0
04/09:00pm S 10 15 - - - - 40 Mostly clear Fine 16.0 1022.0 0.0
04/08:30pm SSE 13 17 - - - - 10 Mostly clear - 16.6 1021.6 0.0
04/08:00pm SSE 11 16 - - - - 10 Mostly clear - 17.7 1021.4 0.0
04/07:30pm S 12 16 - - - - 10 Mostly clear - 18.6 1021.2 0.0
04/07:00pm S 11 16 - - - - 10 Mostly clear - 19.7 1021.1 0.0
04/06:30pm S 9 12 - - - - 10 Mostly clear - 19.5 1020.9 0.0
04/06:00pm SW 17 23 - - - - 30 Mostly clear Fine 19.7 1020.4 0.0
04/05:30pm SW 17 21 - - - - 10 Mostly clear - 19.8 1020.4 0.0
04/05:00pm SW 19 25 - - - - 10 Mostly clear - 19.9 1020.7 0.0
04/04:30pm SW 19 24 - - - - 10 Mostly clear - 20.2 1021.0 0.0
04/04:00pm SW 21 26 - - - - 10 Mostly clear - 19.5 1021.5 0.0
04/03:30pm SW 19 25 - - - - 10 Mostly clear - 19.5 1021.5 0.0
04/03:00pm WSW 21 25 - - - - 30 Mostly clear Fine 19.5 1021.9 0.0
04/02:30pm SW 18 22 - - - - 10 Mostly clear - 20.4 1021.8 0.0
04/02:00pm SW 18 23 - - - - 10 Mostly clear - 20.0 1022.1 0.0
04/01:30pm SW 20 26 - - - - 10 Mostly clear - 19.3 1022.6 0.0
04/01:00pm WSW 17 21 - - - - 10 Mostly clear - 19.4 1022.9 0.0
04/12:30pm SW 15 19 - - - - 10 Partly cloudy - 19.2 1023.3 0.0
04/12:00pm SW 14 18 - - - - 30 Partly cloudy Fine 18.8 1023.5 0.0
04/11:30am SSE 12 17 - - - - 10 Partly cloudy - 19.5 1023.4 0.0
04/11:00am SSW 11 16 - - - - 10 Mostly cloudy - 18.3 1023.3 0.0
04/10:30am SSW 11 17 - - - - 10 Mostly cloudy - 17.2 1023.6 0.0
04/10:00am SSE 12 17 - - - - 10 Mostly cloudy - 17.0 1023.6 0.0
04/09:30am S 10 15 - - - - 10 Partly cloudy - 17.6 1023.5 0.0
04/09:00am SSW 12 17 - - - - 30 Partly cloudy Fine 16.8 1023.7 0.0
04/08:30am SSW 10 14 - - - - 10 Mostly clear - 16.4 1023.5 0.0
04/08:00am S 6 8 - - - - 10 Mostly clear - 15.6 1023.3 0.0
04/07:30am SSE 1 3 - - - - 10 Partly cloudy - 13.9 1023.1 0.0
04/07:00am CALM 0 0 - - - - 10 Partly cloudy - 12.3 1022.9 0.0
04/06:30am CALM 0 0 - - - - 10 Mostly clear - 11.3 1022.6 0.0
04/06:00am SE 2 4 - - - - 30 Mostly clear Fine 10.5 1022.3 0.0
04/05:30am S 5 6 - - - - 10 - - 10.8 1021.8 0.0
04/05:00am SSE 4 5 - - - - 10 - - 10.9 1021.5 0.0
04/04:30am S 5 5 - - - - 10 - - 11.2 1021.5 0.0
04/04:00am S 7 8 - - - - 10 - - 11.7 1021.1 0.0
04/03:30am SSW 7 7 - - - - 10 - - 11.5 1021.0 0.0
04/03:00am SSW 6 7 - - - - 30 Clear Fine 11.5 1021.0 0.0
04/02:30am S 6 6 - - - - 10 - - 11.4 1021.0 0.0
04/02:00am SSW 5 6 - - - - 10 - - 11.8 1021.4 0.0
04/01:30am SSW 5 6 - - - - 10 - - 12.2 1021.6 0.0
04/01:00am S 6 7 - - - - 10 - - 12.4 1021.8 0.0
04/12:30am S 7 10 - - - - 10 - - 12.8 1021.9 0.0
04/12:00am SSE 9 13 - - - - 30 Clear Fine 13.4 1021.7 0.0
 
Date/Time
CDT
Wind Sea
Height
m
Swell Vis
km
Cloud Weather Temp
°C
Press
MSL
hPa
Rain since
9am
mm
Dir  Spd
kts
Gust
kts
Height
m
Period
s
Dir
03/11:30pm SSE 11 14 - - - - 10 - - 13.9 1021.7 0.0
03/11:00pm SSE 9 12 - - - - 10 - - 14.1 1021.6 0.0
03/10:30pm SSE 11 15 - - - - 10 - - 14.4 1021.6 0.0
03/10:00pm SSE 9 14 - - - - 10 - - 14.7 1021.4 0.0
03/09:30pm SSE 10 13 - - - - 10 - - 15.1 1021.1 0.0
03/09:00pm SSE 13 16 - - - - 30 Mostly clear Fine 15.9 1021.0 0.0
03/08:30pm S 11 14 - - - - 10 - - 16.9 1020.7 0.0
03/08:00pm S 12 17 - - - - 10 - - 17.8 1020.5 0.0
03/07:30pm S 12 15 - - - - 10 - - 18.9 1020.4 0.0
03/07:00pm S 13 16 - - - - 10 Mostly clear - 19.6 1019.8 0.0
03/06:30pm SW 18 22 - - - - 10 Mostly clear - 19.5 1020.0 0.0
03/06:00pm SW 18 24 - - - - 30 Partly cloudy Fine 19.6 1019.6 0.0
03/05:30pm SW 19 24 - - - - 10 Mostly clear - 19.9 1019.7 0.0
03/05:00pm SSW 15 21 - - - - 10 Mostly clear - 19.4 1019.4 0.0
03/04:30pm SW 17 21 - - - - 10 Mostly clear - 20.0 1019.7 0.0
03/04:00pm SW 16 20 - - - - 10 Mostly clear - 19.4 1019.7 0.0
03/03:30pm SW 17 20 - - - - 10 Mostly clear - 20.4 1020.2 0.0

Other formats

Comma delimited format used in spreadsheet applications
http://www.bom.gov.au/fwo/IDS60701/IDS60701.94672.axf

JavaScript Object Notation format (JSON) in row-major order
http://www.bom.gov.au/fwo/IDS60701/IDS60701.94672.json

Data quality

Most of these data are generated automatically and are frequently updated. Quality checks on data are not normally performed. It is possible for incorrect values to appear. Refer to information at About Latest Weather Observations and please check the disclaimer before using these data.